EIKN/NOC METAR and TAF weather

Enter ICAO airport designator
Station Type Date Time Source
EIKN METAR 2019/10/21 05:30 UTC NOAA

EIKN 210530Z 02002KT 9999 FEW032 05/02 Q1024 NOSIG


Station Type Date Time Source
EIKN Decoded METAR 2019/10/21 05:30 UTC NOAA

Connaught, Ireland (EIKN) 53-54-37N 008-49-05W
Oct 21, 2019 - 01:30 AM EDT / 2019.10.21 0530 UTC
Wind: from the NNE (020 degrees) at 2 MPH (2 KT):0
Visibility: greater than 7 mile(s):0
Sky conditions: mostly clear
Temperature: 41 F (5 C)
Dew Point: 35 F (2 C)
Relative Humidity: 80%
Pressure (altimeter): 30.24 in. Hg (1024 hPa)
ob: EIKN 210530Z 02002KT 9999 FEW032 05/02 Q1024 NOSIG
cycle: 5

Station Type Date Time Source
EIKN TAF 2019/10/21 06:09 UTC NOAA

TAF EIKN 210500Z 2106/2206 VRB03KT 9999 FEW020
BECMG 2118/2121 20007KT

Example: see airport list